Time;durP1;ratioP1;P1;durP2;ratioP2;P2;SDS_P1;SDS_P2;PMS_P1;PMS_P2;Temp;Humidity;BMP_temperature;BMP_pressure;BME280_temperature;BME280_humidity;BME280_pressure;Samples;Min_cycle;Max_cycle;Signal;HPM_P1;HPM_P2
2022/02/19 00:00:37;;;;;;;0.90;0.70;;;9.10;99.90;;;;;;5059570;28;20250;-49
2022/02/19 00:03:05;;;;;;;0.88;0.55;;;9.10;99.90;;;;;;5059962;28;20231;-52
2022/02/19 00:05:32;;;;;;;1.42;0.77;;;9.10;99.90;;;;;;5059710;28;20204;-48
2022/02/19 00:08:01;;;;;;;0.60;0.60;;;9.10;99.90;;;;;;5059256;28;20197;-47
2022/02/19 00:10:29;;;;;;;1.88;0.63;;;9.00;99.90;;;;;;5058389;28;20221;-48
2022/02/19 00:12:56;;;;;;;1.35;1.05;;;9.00;99.90;;;;;;5059599;28;20208;-50
2022/02/19 00:15:24;;;;;;;3.35;1.08;;;9.10;99.90;;;;;;5060290;28;20197;-49
2022/02/19 00:17:53;;;;;;;0.63;0.50;;;9.00;99.90;;;;;;5061157;28;20207;-48
2022/02/19 00:20:20;;;;;;;2.70;1.42;;;9.00;99.90;;;;;;5061034;28;20220;-48
2022/02/19 00:22:47;;;;;;;4.63;1.00;;;8.90;99.90;;;;;;5061173;28;20232;-48
2022/02/19 00:25:15;;;;;;;0.80;0.80;;;8.90;99.90;;;;;;5061049;28;20367;-52
2022/02/19 00:27:44;;;;;;;4.40;0.70;;;8.80;99.90;;;;;;5060975;28;20396;-48
2022/02/19 00:30:12;;;;;;;2.47;1.02;;;8.70;99.90;;;;;;5061386;28;20255;-52
2022/02/19 00:32:39;;;;;;;0.80;0.80;;;8.60;99.90;;;;;;5041847;28;20216;-52
2022/02/19 00:35:06;;;;;;;3.15;1.17;;;8.80;99.90;;;;;;5059774;28;20280;-50
2022/02/19 00:37:34;;;;;;;1.08;0.75;;;8.70;99.90;;;;;;5059308;28;20207;-51
2022/02/19 00:40:01;;;;;;;0.80;0.80;;;8.70;99.90;;;;;;5059134;28;20451;-49
2022/02/19 00:42:28;;;;;;;1.20;0.70;;;8.70;99.90;;;;;;5059476;28;20251;-53
2022/02/19 00:44:56;;;;;;;1.48;0.95;;;8.80;99.90;;;;;;5064567;28;20443;-53
2022/02/19 00:47:23;;;;;;;3.10;1.05;;;8.70;99.90;;;;;;5062053;28;20205;-49
2022/02/19 00:49:51;;;;;;;4.47;1.20;;;8.80;99.90;;;;;;5059790;28;20224;-49
2022/02/19 00:52:18;;;;;;;1.08;1.00;;;8.90;99.90;;;;;;5059541;28;20279;-49
2022/02/19 00:54:45;;;;;;;1.42;0.85;;;9.00;99.90;;;;;;5059323;28;20215;-52
2022/02/19 00:57:13;;;;;;;0.85;0.70;;;8.90;99.90;;;;;;5060183;28;20217;-50
2022/02/19 00:59:41;;;;;;;1.15;0.70;;;8.90;99.90;;;;;;5059128;28;20220;-48
2022/02/19 01:02:08;;;;;;;1.00;0.68;;;8.90;99.90;;;;;;5046434;28;20219;-47
2022/02/19 01:04:35;;;;;;;2.55;0.75;;;9.00;99.90;;;;;;5053228;28;20515;-50
2022/02/19 01:07:02;;;;;;;0.88;0.70;;;8.90;99.90;;;;;;5057917;28;20434;-50
2022/02/19 01:09:29;;;;;;;5.55;1.00;;;8.80;99.90;;;;;;5059279;28;20228;-48
2022/02/19 01:11:56;;;;;;;1.95;0.80;;;8.70;99.90;;;;;;5058864;28;20238;-51
2022/02/19 01:14:23;;;;;;;5.80;0.80;;;8.80;99.90;;;;;;5059398;28;20219;-49
2022/02/19 01:16:51;;;;;;;6.28;1.67;;;8.80;99.90;;;;;;5059484;28;20200;-48
2022/02/19 01:19:18;;;;;;;5.18;1.25;;;8.80;99.90;;;;;;5061853;28;20224;-51
2022/02/19 01:21:45;;;;;;;2.47;0.50;;;8.70;99.90;;;;;;5062413;28;20224;-53
2022/02/19 01:24:13;;;;;;;2.58;1.30;;;8.50;99.90;;;;;;5062660;28;20196;-51
2022/02/19 01:26:40;;;;;;;2.80;0.90;;;8.40;99.90;;;;;;5063434;28;20200;-48
2022/02/19 01:29:08;;;;;;;1.13;1.00;;;8.20;99.90;;;;;;5062343;28;20217;-52
2022/02/19 01:31:35;;;;;;;1.80;0.60;;;8.20;99.90;;;;;;5062689;28;20430;-50
2022/02/19 01:34:02;;;;;;;3.90;0.98;;;8.00;99.90;;;;;;5063915;28;20191;-51
2022/02/19 01:36:30;;;;;;;2.67;0.82;;;8.00;99.90;;;;;;5062792;28;20195;-51
2022/02/19 01:38:57;;;;;;;3.10;0.82;;;7.90;99.90;;;;;;5062253;28;20242;-48
2022/02/19 01:41:24;;;;;;;1.25;1.02;;;7.80;99.90;;;;;;5062324;28;20596;-51
2022/02/19 01:43:51;;;;;;;1.70;0.90;;;7.80;99.90;;;;;;5062617;28;20204;-48
2022/02/19 01:46:19;;;;;;;1.48;0.90;;;7.90;99.90;;;;;;5063004;28;20204;-47
2022/02/19 01:48:46;;;;;;;1.50;0.80;;;8.00;99.90;;;;;;5062930;28;20203;-52
2022/02/19 01:51:18;;;;;;;3.08;1.08;;;8.00;99.90;;;;;;5061884;28;20553;-47
2022/02/19 01:53:45;;;;;;;1.35;0.80;;;8.00;99.90;;;;;;5062198;28;20227;-47
2022/02/19 01:56:13;;;;;;;0.70;0.70;;;8.10;99.90;;;;;;5061765;28;20208;-53
2022/02/19 01:58:41;;;;;;;1.88;0.57;;;7.90;99.90;;;;;;5062228;28;20211;-53
2022/02/19 02:01:08;;;;;;;1.73;0.60;;;7.90;99.90;;;;;;5062075;28;20242;-52
2022/02/19 02:03:35;;;;;;;3.13;2.20;;;8.00;99.90;;;;;;5063026;28;20233;-53
2022/02/19 02:06:03;;;;;;;4.88;1.08;;;7.90;99.90;;;;;;5061981;28;20210;-51
2022/02/19 02:08:30;;;;;;;1.13;1.02;;;7.90;99.90;;;;;;5061856;28;20208;-51
2022/02/19 02:11:02;;;;;;;1.25;0.65;;;7.80;99.90;;;;;;5062258;28;20231;-50
2022/02/19 02:13:29;;;;;;;1.77;1.40;;;7.90;99.90;;;;;;5061583;28;20422;-49
2022/02/19 02:15:57;;;;;;;0.60;0.60;;;8.00;99.90;;;;;;5061632;28;20200;-57
2022/02/19 02:18:24;;;;;;;3.55;0.70;;;8.00;99.90;;;;;;5061559;28;20261;-47
2022/02/19 02:20:53;;;;;;;1.10;0.73;;;8.10;99.90;;;;;;5061146;28;20258;-50
2022/02/19 02:23:21;;;;;;;2.05;0.65;;;8.30;99.90;;;;;;5061183;28;20219;-51
2022/02/19 02:25:48;;;;;;;0.80;0.80;;;8.30;99.90;;;;;;5062891;28;20306;-48
2022/02/19 02:28:16;;;;;;;3.50;1.00;;;8.20;99.90;;;;;;5068471;28;20267;-50
2022/02/19 02:30:43;;;;;;;1.70;0.75;;;8.30;99.90;;;;;;5060126;28;20222;-49
2022/02/19 02:33:15;;;;;;;2.03;0.80;;;8.40;99.90;;;;;;5062924;28;20199;-50
2022/02/19 02:35:42;;;;;;;1.05;0.77;;;8.30;99.90;;;;;;5062724;28;20545;-50
2022/02/19 02:38:09;;;;;;;4.22;1.02;;;8.20;99.90;;;;;;5062504;28;20210;-49
2022/02/19 02:40:36;;;;;;;2.10;0.80;;;8.10;99.90;;;;;;5061467;28;20220;-48
2022/02/19 02:43:04;;;;;;;4.22;1.35;;;8.00;99.90;;;;;;5061604;28;20261;-51
2022/02/19 02:45:32;;;;;;;2.78;1.00;;;7.90;99.90;;;;;;5061165;28;20510;-48
2022/02/19 02:48:19;;;;;;;1.70;1.40;;;7.80;99.90;;;;;;5061544;28;20202;-49
2022/02/19 02:50:47;;;;;;;3.17;1.17;;;7.60;99.90;;;;;;5061102;28;20216;-54
2022/02/19 02:53:34;;;;;;;1.00;0.95;;;7.50;99.90;;;;;;5061188;28;20256;-51
2022/02/19 02:56:02;;;;;;;3.22;1.60;;;7.50;99.90;;;;;;5060950;28;20238;-51
2022/02/19 02:58:29;;;;;;;1.05;0.90;;;7.40;99.90;;;;;;5061004;28;20302;-51
2022/02/19 03:00:56;;;;;;;0.60;0.60;;;7.30;99.90;;;;;;5060696;28;20550;-51
2022/02/19 03:03:24;;;;;;;0.73;0.70;;;7.30;99.90;;;;;;5060772;28;20219;-53
2022/02/19 03:05:51;;;;;;;6.60;1.55;;;7.20;99.90;;;;;;5060884;28;20195;-50
2022/02/19 03:08:18;;;;;;;0.50;0.50;;;7.10;99.90;;;;;;5061479;28;20195;-50
2022/02/19 03:10:45;;;;;;;2.33;1.38;;;7.10;99.90;;;;;;5060319;28;20215;-54
2022/02/19 03:13:13;;;;;;;3.72;1.83;;;7.00;99.90;;;;;;5060592;28;20211;-50
2022/02/19 03:15:40;;;;;;;3.00;0.85;;;6.90;99.90;;;;;;5060933;28;20200;-52
2022/02/19 03:18:07;;;;;;;4.75;1.80;;;6.80;99.90;;;;;;5060749;28;20195;-52
2022/02/19 03:20:39;;;;;;;0.50;0.50;;;6.70;99.90;;;;;;5060237;28;20220;-51
2022/02/19 03:23:07;;;;;;;9.18;1.40;;;6.70;99.90;;;;;;5061409;28;20282;-48
2022/02/19 03:25:34;;;;;;;1.45;0.80;;;6.50;99.90;;;;;;5060013;28;20536;-50
2022/02/19 03:28:01;;;;;;;5.15;1.48;;;6.50;99.90;;;;;;5060672;28;20427;-52
2022/02/19 03:30:28;;;;;;;1.45;1.25;;;6.40;99.90;;;;;;5060242;28;20216;-51
2022/02/19 03:32:56;;;;;;;4.57;0.68;;;6.30;99.90;;;;;;5060487;28;20211;-48
2022/02/19 03:35:23;;;;;;;0.65;0.65;;;6.50;99.90;;;;;;5060457;28;20204;-48
2022/02/19 03:37:51;;;;;;;2.08;0.60;;;6.50;99.90;;;;;;5059464;28;20207;-51
2022/02/19 03:40:18;;;;;;;2.70;1.02;;;6.70;99.90;;;;;;5060390;28;20231;-52
2022/02/19 03:42:46;;;;;;;3.40;1.05;;;6.80;99.90;;;;;;5058771;28;20230;-49
2022/02/19 03:45:14;;;;;;;1.58;0.75;;;6.80;99.90;;;;;;5061310;28;20195;-48
2022/02/19 03:47:43;;;;;;;1.13;0.75;;;6.70;99.90;;;;;;5059653;28;20241;-53
2022/02/19 03:50:17;;;;;;;3.00;1.13;;;6.70;99.90;;;;;;5059900;28;20237;-50
2022/02/19 03:52:48;;;;;;;1.40;0.80;;;6.60;99.90;;;;;;5059767;28;20207;-50
2022/02/19 03:55:17;;;;;;;1.58;0.60;;;6.50;99.90;;;;;;5060560;28;20326;-49
2022/02/19 03:57:45;;;;;;;3.80;1.58;;;6.40;99.90;;;;;;5059902;28;20199;-51
2022/02/19 04:00:13;;;;;;;1.00;0.80;;;6.40;99.90;;;;;;5077345;22;20239;-43
2022/02/19 04:02:43;;;;;;;5.40;1.35;;;6.50;99.90;;;;;;5053719;28;20453;-47
2022/02/19 04:05:12;;;;;;;0.93;0.82;;;6.40;99.90;;;;;;5057485;28;20195;-48
2022/02/19 04:07:40;;;;;;;0.40;0.40;;;6.40;99.90;;;;;;5059190;28;20195;-47
2022/02/19 04:10:08;;;;;;;4.03;1.35;;;6.30;99.90;;;;;;5058837;28;20336;-48
2022/02/19 04:12:35;;;;;;;2.17;0.88;;;6.30;99.90;;;;;;5059230;28;20206;-46
2022/02/19 04:15:04;;;;;;;1.40;0.82;;;6.30;99.90;;;;;;5058852;28;20215;-46
2022/02/19 04:17:31;;;;;;;3.22;1.35;;;6.30;99.90;;;;;;5059396;28;20199;-45
2022/02/19 04:19:58;;;;;;;3.55;0.80;;;6.20;99.90;;;;;;5059045;28;20223;-47
2022/02/19 04:22:26;;;;;;;2.25;0.60;;;6.30;99.90;;;;;;5059346;28;20207;-47
2022/02/19 04:24:53;;;;;;;2.05;0.70;;;6.30;99.90;;;;;;5058982;28;20257;-48
2022/02/19 04:27:21;;;;;;;0.88;0.88;;;6.40;99.90;;;;;;5058950;28;20223;-45
2022/02/19 04:29:48;;;;;;;2.72;1.02;;;6.40;99.90;;;;;;5058725;28;20223;-47
2022/02/19 04:32:16;;;;;;;1.10;1.00;;;6.40;99.90;;;;;;5059197;28;20200;-47
2022/02/19 04:34:43;;;;;;;1.95;0.70;;;6.30;99.90;;;;;;5059044;28;20438;-48
2022/02/19 04:37:11;;;;;;;4.80;1.10;;;6.30;99.90;;;;;;5058808;28;20203;-47
2022/02/19 04:39:39;;;;;;;0.90;0.90;;;6.10;99.90;;;;;;5059099;28;20219;-46
2022/02/19 04:42:06;;;;;;;0.88;0.70;;;6.10;99.90;;;;;;5058860;28;20292;-46
2022/02/19 04:44:34;;;;;;;3.97;1.05;;;6.10;99.90;;;;;;5058833;28;20227;-46
2022/02/19 04:47:02;;;;;;;1.65;1.02;;;6.10;99.90;;;;;;5059152;28;20196;-46
2022/02/19 04:49:29;;;;;;;1.65;0.85;;;6.10;99.90;;;;;;5060829;28;20224;-48
2022/02/19 04:51:57;;;;;;;2.03;1.10;;;6.10;99.90;;;;;;5060795;28;20226;-46
2022/02/19 04:54:24;;;;;;;0.70;0.70;;;6.10;99.90;;;;;;5063193;28;20219;-45
2022/02/19 04:56:51;;;;;;;6.72;0.88;;;6.10;99.90;;;;;;5065001;28;20491;-47
2022/02/19 04:59:19;;;;;;;1.40;1.05;;;6.10;99.90;;;;;;5065012;28;20473;-49
2022/02/19 05:01:48;;;;;;;1.88;1.13;;;6.00;99.90;;;;;;5066498;28;20238;-46
2022/02/19 05:04:17;;;;;;;1.92;1.02;;;6.00;99.90;;;;;;5065437;28;20227;-45
2022/02/19 05:06:44;;;;;;;1.20;0.73;;;6.00;99.90;;;;;;5064668;28;20225;-47
2022/02/19 05:09:11;;;;;;;1.80;0.80;;;6.00;99.90;;;;;;5063138;28;20451;-46
2022/02/19 05:11:39;;;;;;;2.65;1.50;;;6.00;99.90;;;;;;5062382;28;20265;-51
2022/02/19 05:14:06;;;;;;;1.95;0.90;;;5.90;99.90;;;;;;5062450;28;20204;-51
2022/02/19 05:16:34;;;;;;;2.25;0.75;;;5.90;99.90;;;;;;5062110;28;20413;-45
2022/02/19 05:19:01;;;;;;;2.70;0.70;;;5.80;99.90;;;;;;5062020;28;20439;-45
2022/02/19 05:21:28;;;;;;;2.85;1.15;;;6.00;99.90;;;;;;5062230;28;20219;-44
2022/02/19 05:23:55;;;;;;;1.15;0.73;;;6.00;99.90;;;;;;5061695;28;20223;-49
2022/02/19 05:26:22;;;;;;;1.15;1.05;;;6.00;99.90;;;;;;5062507;28;20199;-45
2022/02/19 05:28:50;;;;;;;4.13;1.40;;;6.00;99.90;;;;;;5061553;28;20297;-50
2022/02/19 05:31:17;;;;;;;1.40;0.82;;;6.00;99.90;;;;;;5062149;28;20418;-44
2022/02/19 05:33:45;;;;;;;3.28;1.30;;;5.90;99.90;;;;;;5061938;28;20202;-44
2022/02/19 05:36:12;;;;;;;1.35;0.95;;;5.90;99.90;;;;;;5062737;28;20237;-46
2022/02/19 05:38:40;;;;;;;0.85;0.80;;;5.90;99.90;;;;;;5061459;28;20213;-45
2022/02/19 05:41:08;;;;;;;3.83;1.27;;;6.00;99.90;;;;;;5061925;28;20219;-48
2022/02/19 05:43:35;;;;;;;0.88;0.88;;;6.10;99.90;;;;;;5062007;28;20222;-46
2022/02/19 05:46:02;;;;;;;5.38;1.10;;;6.00;99.90;;;;;;5061457;28;20187;-45
2022/02/19 05:48:30;;;;;;;1.00;0.90;;;6.20;99.90;;;;;;5061770;28;20196;-48
2022/02/19 05:50:57;;;;;;;1.85;0.88;;;6.30;99.90;;;;;;5060741;28;20228;-48
2022/02/19 05:53:25;;;;;;;1.05;0.73;;;6.30;99.90;;;;;;5061898;28;20204;-45
2022/02/19 05:55:53;;;;;;;1.77;0.88;;;6.40;99.90;;;;;;5061788;28;20199;-47
2022/02/19 05:58:21;;;;;;;2.70;1.05;;;6.30;99.90;;;;;;5061727;28;20199;-50
2022/02/19 06:00:49;;;;;;;1.42;0.70;;;6.30;99.90;;;;;;5060936;28;20239;-45
2022/02/19 06:03:16;;;;;;;1.25;1.10;;;6.40;99.90;;;;;;5061460;28;20283;-50
2022/02/19 06:05:43;;;;;;;3.30;1.17;;;6.40;99.90;;;;;;5060351;28;20541;-50
2022/02/19 06:08:10;;;;;;;7.25;1.17;;;6.30;99.90;;;;;;5061086;28;20564;-49
2022/02/19 06:10:40;;;;;;;1.52;0.75;;;6.30;99.90;;;;;;5061299;28;20215;-45
2022/02/19 06:13:07;;;;;;;2.95;1.05;;;6.20;99.90;;;;;;5060982;28;20192;-46
2022/02/19 06:15:34;;;;;;;2.63;1.27;;;6.10;99.90;;;;;;5061409;28;20199;-49
2022/02/19 06:18:02;;;;;;;1.15;0.60;;;6.10;99.90;;;;;;5060679;28;20502;-45
2022/02/19 06:20:30;;;;;;;1.55;0.80;;;6.00;99.90;;;;;;5060987;28;20266;-45
2022/02/19 06:22:59;;;;;;;1.10;0.70;;;6.00;99.90;;;;;;5060517;28;20210;-45
2022/02/19 06:25:27;;;;;;;1.88;0.98;;;6.00;99.90;;;;;;5061617;28;20196;-48
2022/02/19 06:27:54;;;;;;;1.50;1.05;;;6.00;99.90;;;;;;5060815;28;20218;-47
2022/02/19 06:30:21;;;;;;;2.97;1.50;;;6.00;99.90;;;;;;5057624;28;20231;-48
2022/02/19 06:32:48;;;;;;;5.72;1.45;;;6.00;99.90;;;;;;5053100;28;20223;-51
2022/02/19 06:35:15;;;;;;;4.20;1.85;;;5.90;99.90;;;;;;5054402;28;20224;-46
2022/02/19 06:37:46;;;;;;;2.65;1.98;;;5.90;99.90;;;;;;5053209;28;20200;-44
2022/02/19 06:40:15;;;;;;;2.38;1.30;;;6.00;99.90;;;;;;5054533;28;20583;-47
2022/02/19 06:42:43;;;;;;;1.48;1.20;;;5.80;99.90;;;;;;5052933;28;20549;-49
2022/02/19 06:45:10;;;;;;;2.88;1.48;;;5.90;99.90;;;;;;5052535;28;20200;-45
2022/02/19 06:47:38;;;;;;;6.05;2.17;;;6.20;99.90;;;;;;5052200;28;20246;-48
2022/02/19 06:50:09;;;;;;;2.20;1.10;;;6.30;99.90;;;;;;5053941;28;20215;-46
2022/02/19 06:52:36;;;;;;;3.35;1.25;;;6.50;99.90;;;;;;5053138;28;20283;-48
2022/02/19 06:55:04;;;;;;;2.88;1.33;;;6.80;99.90;;;;;;5059280;28;20406;-47
2022/02/19 06:57:32;;;;;;;0.82;0.82;;;7.10;99.90;;;;;;5059702;28;20325;-46
2022/02/19 06:59:59;;;;;;;1.50;1.20;;;7.30;99.90;;;;;;5039840;28;20586;-44
2022/02/19 07:02:27;;;;;;;1.05;0.75;;;7.40;99.90;;;;;;5040434;28;20200;-47
2022/02/19 07:04:54;;;;;;;2.92;1.30;;;7.40;99.90;;;;;;5040504;28;20224;-47
2022/02/19 07:07:21;;;;;;;1.23;0.88;;;7.20;99.90;;;;;;5040280;28;20203;-51
2022/02/19 07:09:49;;;;;;;2.80;1.13;;;7.10;99.90;;;;;;5039856;28;20545;-50
2022/02/19 07:12:16;;;;;;;3.63;1.10;;;7.10;99.90;;;;;;5055519;28;20233;-49
2022/02/19 07:14:44;;;;;;;5.43;3.28;;;7.20;99.90;;;;;;5059714;28;20510;-52
2022/02/19 07:17:12;;;;;;;0.98;0.80;;;7.20;99.90;;;;;;5059944;28;20203;-47
2022/02/19 07:19:40;;;;;;;5.07;1.02;;;7.30;99.90;;;;;;5059594;28;20557;-46
2022/02/19 07:22:10;;;;;;;1.85;0.73;;;7.50;99.90;;;;;;5059847;28;20502;-49
2022/02/19 07:24:37;;;;;;;2.15;1.13;;;7.60;99.90;;;;;;5059555;28;20219;-50
2022/02/19 07:27:05;;;;;;;2.28;1.83;;;7.90;99.90;;;;;;5059670;28;20203;-47
2022/02/19 07:29:32;;;;;;;3.97;1.38;;;8.00;99.90;;;;;;5059372;28;20223;-50
2022/02/19 07:31:59;;;;;;;2.45;0.85;;;7.80;99.90;;;;;;5059489;28;20192;-45
2022/02/19 07:34:27;;;;;;;2.38;1.70;;;7.60;99.90;;;;;;5059719;28;20542;-49
2022/02/19 07:36:54;;;;;;;2.67;1.48;;;7.70;99.90;;;;;;5059371;28;20208;-47
2022/02/19 07:39:21;;;;;;;1.17;0.73;;;7.90;99.90;;;;;;5059289;28;20230;-50
2022/02/19 07:41:51;;;;;;;3.90;0.82;;;8.50;99.90;;;;;;5059177;28;20253;-51
2022/02/19 07:44:19;;;;;;;1.45;0.80;;;9.30;99.90;;;;;;5059694;28;20231;-45
2022/02/19 07:46:46;;;;;;;0.93;0.82;;;9.50;99.90;;;;;;5059668;28;20251;-47
2022/02/19 08:00:17;;;;;;;1.25;1.10;;;11.10;99.90;;;;;;5043865;28;20242;-46
2022/02/19 08:02:44;;;;;;;1.63;1.13;;;10.20;99.90;;;;;;5045272;28;20253;-48
2022/02/19 08:05:12;;;;;;;1.48;0.85;;;9.80;99.90;;;;;;5045842;28;20256;-49
2022/02/19 08:07:39;;;;;;;7.40;1.88;;;9.80;99.90;;;;;;5044700;28;20199;-54
2022/02/19 08:10:07;;;;;;;2.47;1.02;;;10.40;99.90;;;;;;5046194;28;20256;-48
2022/02/19 08:12:34;;;;;;;1.63;1.27;;;10.10;99.90;;;;;;5048385;28;20210;-52
2022/02/19 08:15:01;;;;;;;4.18;1.85;;;9.80;99.90;;;;;;5059577;28;20201;-54
2022/02/19 08:17:29;;;;;;;2.30;1.55;;;10.60;99.90;;;;;;5053206;28;20218;-45
2022/02/19 08:19:57;;;;;;;3.83;1.05;;;11.50;99.40;;;;;;5049592;28;20225;-50
2022/02/19 08:22:25;;;;;;;1.50;0.88;;;12.00;97.50;;;;;;5058540;28;20261;-50
2022/02/19 08:24:52;;;;;;;2.60;1.88;;;12.20;99.60;;;;;;5054600;28;20231;-52
2022/02/19 08:27:20;;;;;;;2.35;1.02;;;11.80;98.60;;;;;;5051055;28;20207;-50
2022/02/19 08:29:47;;;;;;;1.88;1.20;;;11.50;98.50;;;;;;5051169;28;20216;-49
2022/02/19 08:32:14;;;;;;;1.40;0.82;;;12.20;96.60;;;;;;5051239;28;20547;-48
2022/02/19 08:34:41;;;;;;;2.28;1.30;;;12.90;95.30;;;;;;5044077;28;20238;-47
2022/02/19 08:37:09;;;;;;;2.47;0.80;;;13.20;93.10;;;;;;5057472;28;20241;-49
2022/02/19 08:39:36;;;;;;;0.80;0.80;;;12.70;93.60;;;;;;5062444;28;20219;-48
2022/02/19 08:42:03;;;;;;;1.88;0.90;;;11.60;95.30;;;;;;5063449;28;20490;-47
2022/02/19 08:44:31;;;;;;;1.50;1.05;;;11.40;96.10;;;;;;5064071;28;20230;-46
2022/02/19 08:46:58;;;;;;;2.00;0.75;;;11.10;96.30;;;;;;5064638;28;20294;-51
2022/02/19 08:49:26;;;;;;;1.85;0.90;;;11.10;98.70;;;;;;5063834;28;20539;-48
2022/02/19 08:51:53;;;;;;;3.58;1.42;;;10.70;98.40;;;;;;5062015;28;20280;-48
2022/02/19 08:54:20;;;;;;;2.38;1.08;;;10.10;99.40;;;;;;5059814;28;20249;-46
2022/02/19 08:56:50;;;;;;;2.17;0.77;;;9.60;99.90;;;;;;5060651;28;20208;-49
2022/02/19 08:59:17;;;;;;;0.80;0.60;;;9.40;99.90;;;;;;5059693;28;20213;-48
2022/02/19 09:01:44;;;;;;;1.30;0.70;;;9.60;99.90;;;;;;5062100;28;20210;-46
2022/02/19 09:04:12;;;;;;;6.93;1.30;;;9.80;99.90;;;;;;5061749;28;20236;-47
2022/02/19 09:06:39;;;;;;;1.73;1.15;;;9.60;99.90;;;;;;5054005;28;20207;-49
2022/02/19 09:09:08;;;;;;;1.10;0.70;;;9.50;99.90;;;;;;5055401;28;20281;-49
2022/02/19 09:11:37;;;;;;;4.47;1.48;;;9.40;99.90;;;;;;5056500;28;20251;-46
2022/02/19 09:14:04;;;;;;;0.98;0.85;;;9.50;99.90;;;;;;5056310;28;20208;-47
2022/02/19 09:16:34;;;;;;;0.77;0.77;;;9.50;99.90;;;;;;5057916;28;20208;-47
2022/02/19 09:19:03;;;;;;;1.02;0.90;;;9.50;99.90;;;;;;5054965;28;20254;-46
2022/02/19 09:21:31;;;;;;;1.08;0.98;;;9.60;99.90;;;;;;5043970;28;20226;-48
2022/02/19 09:24:01;;;;;;;0.73;0.73;;;9.70;99.90;;;;;;5044835;28;20575;-46
2022/02/19 09:26:28;;;;;;;1.85;0.90;;;9.80;99.90;;;;;;5051249;28;20308;-46
2022/02/19 09:28:56;;;;;;;2.60;1.05;;;9.70;99.90;;;;;;5049558;28;20400;-45
2022/02/19 09:31:23;;;;;;;0.70;0.70;;;9.30;99.90;;;;;;5057442;28;20321;-47
2022/02/19 09:33:50;;;;;;;1.85;0.70;;;9.30;99.90;;;;;;5046004;28;20357;-46
2022/02/19 09:36:18;;;;;;;1.33;1.20;;;9.30;99.90;;;;;;5055535;28;20206;-47
2022/02/19 09:38:48;;;;;;;1.05;0.85;;;9.50;99.90;;;;;;5044801;28;20209;-44
2022/02/19 09:41:16;;;;;;;0.82;0.65;;;9.50;99.90;;;;;;5045324;28;20284;-49
2022/02/19 09:43:43;;;;;;;1.67;0.82;;;9.60;99.90;;;;;;5060319;28;20209;-52
2022/02/19 09:46:14;;;;;;;0.47;0.47;;;9.60;99.90;;;;;;5051614;28;20220;-48
2022/02/19 09:48:43;;;;;;;2.03;1.35;;;9.60;99.90;;;;;;5058637;28;20267;-49
2022/02/19 09:51:11;;;;;;;3.50;0.90;;;9.80;99.90;;;;;;5061073;28;20223;-48
2022/02/19 09:53:39;;;;;;;1.50;0.90;;;9.70;99.90;;;;;;5058669;28;20455;-52
2022/02/19 09:56:07;;;;;;;5.13;1.05;;;9.90;99.90;;;;;;5054122;28;20216;-45
2022/02/19 09:58:35;;;;;;;3.35;1.05;;;9.90;99.90;;;;;;5059165;28;20452;-52
2022/02/19 10:01:23;;;;;;;5.68;1.45;;;9.90;99.90;;;;;;5067595;23;20236;-55
2022/02/19 10:03:56;;;;;;;3.80;1.00;;;9.60;99.90;;;;;;5051172;28;20543;-52
2022/02/19 10:06:34;;;;;;;1.63;1.52;;;9.40;99.90;;;;;;5055306;28;20209;-50
2022/02/19 10:09:19;;;;;;;3.50;1.80;;;9.50;99.90;;;;;;5055521;28;20515;-52
2022/02/19 10:11:47;;;;;;;1.23;0.95;;;9.50;99.90;;;;;;5059215;28;20246;-56
2022/02/19 10:14:34;;;;;;;2.88;1.10;;;9.50;99.90;;;;;;5060502;28;20272;-51
2022/02/19 10:17:15;;;;;;;1.10;0.80;;;9.40;99.90;;;;;;5060265;28;20429;-55
2022/02/19 10:20:04;;;;;;;2.05;1.15;;;9.30;99.90;;;;;;5060890;28;20219;-54
2022/02/19 10:22:38;;;;;;;1.08;0.90;;;9.30;99.90;;;;;;5056241;28;20464;-53
2022/02/19 10:25:11;;;;;;;1.50;0.90;;;9.30;99.90;;;;;;5056971;28;20232;-53
2022/02/19 10:27:44;;;;;;;0.77;0.70;;;9.40;99.90;;;;;;5053390;28;20201;-54
2022/02/19 10:30:14;;;;;;;2.75;1.10;;;9.50;99.90;;;;;;5057224;28;20285;-55
2022/02/19 10:32:54;;;;;;;1.33;1.10;;;9.60;99.90;;;;;;5058634;28;20470;-53
2022/02/19 10:35:33;;;;;;;2.55;0.90;;;9.50;99.90;;;;;;5058423;28;20200;-54
2022/02/19 10:38:06;;;;;;;4.25;0.80;;;9.50;99.90;;;;;;5069159;28;20201;-51
2022/02/19 10:40:40;;;;;;;2.60;0.80;;;9.50;99.90;;;;;;5060225;28;20224;-51
2022/02/19 10:43:11;;;;;;;1.15;0.85;;;9.50;99.90;;;;;;5059803;28;20531;-51
2022/02/19 10:45:55;;;;;;;0.95;0.90;;;9.50;99.90;;;;;;5052410;28;20243;-55
2022/02/19 10:48:26;;;;;;;3.10;1.38;;;9.50;99.90;;;;;;5058371;28;21957;-53
2022/02/19 10:51:08;;;;;;;2.55;1.15;;;9.30;99.90;;;;;;5058078;28;20452;-52
2022/02/19 10:53:38;;;;;;;4.22;1.45;;;9.30;99.90;;;;;;5059355;28;20238;-53
2022/02/19 10:56:11;;;;;;;5.68;0.70;;;9.30;99.90;;;;;;5058174;28;20520;-51
2022/02/19 10:58:58;;;;;;;1.42;1.00;;;9.20;99.90;;;;;;5050361;28;20268;-51
2022/02/19 11:01:27;;;;;;;1.10;0.82;;;9.20;99.90;;;;;;5030760;28;20244;-53
2022/02/19 11:03:54;;;;;;;1.93;1.03;;;9.20;99.90;;;;;;5041726;28;20201;-55
2022/02/19 11:06:23;;;;;;;3.50;0.75;;;9.20;99.90;;;;;;5041850;28;20395;-54
2022/02/19 11:08:50;;;;;;;1.40;1.30;;;9.10;99.90;;;;;;5041372;28;20205;-54
2022/02/19 11:11:22;;;;;;;0.90;0.90;;;9.10;99.90;;;;;;5041008;28;20275;-51
2022/02/19 11:13:49;;;;;;;3.88;1.55;;;9.20;99.90;;;;;;5041570;28;20210;-56
2022/02/19 11:16:16;;;;;;;2.88;1.65;;;9.30;99.90;;;;;;5041001;28;20201;-52
2022/02/19 11:18:45;;;;;;;2.50;1.15;;;9.50;99.90;;;;;;5042825;28;20231;-55
2022/02/19 11:21:34;;;;;;;2.25;1.65;;;9.70;99.90;;;;;;5039184;28;20257;-53
2022/02/19 11:24:04;;;;;;;1.30;0.90;;;9.80;99.90;;;;;;5058192;28;20293;-52
2022/02/19 11:26:31;;;;;;;1.63;0.65;;;9.80;99.90;;;;;;5056991;28;20196;-55
2022/02/19 11:29:02;;;;;;;0.82;0.82;;;9.40;99.90;;;;;;5057242;28;20500;-55
2022/02/19 11:31:32;;;;;;;2.28;0.90;;;9.20;99.90;;;;;;5059826;28;20263;-57
2022/02/19 11:34:04;;;;;;;4.88;1.40;;;9.10;99.90;;;;;;5057633;28;20240;-54
2022/02/19 11:36:33;;;;;;;3.50;1.45;;;9.10;99.90;;;;;;5059796;28;20247;-53
2022/02/19 11:39:03;;;;;;;1.25;1.10;;;9.10;99.90;;;;;;5059415;28;20245;-56
2022/02/19 11:41:35;;;;;;;2.50;1.58;;;9.20;99.90;;;;;;5055572;28;20228;-52
2022/02/19 11:44:24;;;;;;;2.80;1.60;;;9.10;99.90;;;;;;5050355;28;20409;-50
2022/02/19 11:46:53;;;;;;;0.98;0.88;;;9.20;99.90;;;;;;5057458;28;20273;-51
2022/02/19 11:49:26;;;;;;;3.13;1.00;;;9.10;99.90;;;;;;5058319;28;20196;-56
2022/02/19 11:52:13;;;;;;;2.20;0.90;;;9.20;99.90;;;;;;5059380;28;20282;-52
2022/02/19 11:55:26;;;;;;;0.95;0.65;;;9.10;99.90;;;;;;5059281;28;20238;-53
2022/02/19 11:58:10;;;;;;;1.20;1.10;;;9.20;99.90;;;;;;5058899;28;20598;-53
2022/02/19 12:01:00;;;;;;;5.10;0.90;;;9.10;99.90;;;;;;5059503;28;20234;-57
2022/02/19 12:03:34;;;;;;;2.03;1.25;;;9.10;99.90;;;;;;5058439;28;20211;-55
2022/02/19 12:06:18;;;;;;;3.88;1.80;;;9.10;99.90;;;;;;5059414;28;20224;-54
2022/02/19 12:08:49;;;;;;;0.70;0.70;;;9.30;99.90;;;;;;5058789;28;20289;-56
2022/02/19 12:11:26;;;;;;;2.72;1.17;;;9.40;99.90;;;;;;5059176;28;20216;-55
2022/02/19 12:13:57;;;;;;;5.65;1.33;;;9.30;99.90;;;;;;5058532;28;20195;-54
2022/02/19 12:16:39;;;;;;;7.85;2.00;;;9.50;99.90;;;;;;5059104;28;20200;-54
2022/02/19 12:19:10;;;;;;;2.60;1.23;;;9.60;99.90;;;;;;5055710;28;20231;-53
2022/02/19 12:21:42;;;;;;;0.80;0.80;;;9.50;99.90;;;;;;5050540;28;20368;-50
2022/02/19 12:24:22;;;;;;;2.50;1.25;;;9.60;99.90;;;;;;5050721;28;20216;-54
2022/02/19 12:26:55;;;;;;;3.83;1.33;;;9.60;99.90;;;;;;5058599;28;20207;-55
2022/02/19 12:29:32;;;;;;;1.73;1.00;;;9.40;99.90;;;;;;5058965;28;20227;-51
2022/02/19 12:32:00;;;;;;;2.55;1.00;;;9.30;99.90;;;;;;5058358;28;20234;-54
2022/02/19 12:34:29;;;;;;;1.05;0.95;;;9.40;99.90;;;;;;5058959;28;20205;-52
2022/02/19 12:36:58;;;;;;;0.75;0.75;;;9.30;99.90;;;;;;5058336;28;20294;-49
2022/02/19 12:39:27;;;;;;;0.80;0.80;;;9.10;99.90;;;;;;5059250;28;20205;-54
2022/02/19 12:41:58;;;;;;;3.03;1.00;;;9.00;99.90;;;;;;5059267;28;20220;-51
2022/02/19 12:44:28;;;;;;;2.95;1.50;;;9.00;99.90;;;;;;5058382;28;20319;-55
2022/02/19 12:46:56;;;;;;;9.98;1.23;;;9.00;99.90;;;;;;5053406;28;20207;-57
2022/02/19 12:49:24;;;;;;;2.22;0.70;;;9.00;99.90;;;;;;5058180;28;20209;-52
2022/02/19 12:51:58;;;;;;;5.47;1.30;;;9.00;99.90;;;;;;5058395;28;20518;-53
2022/02/19 12:54:43;;;;;;;1.05;0.88;;;9.10;99.90;;;;;;5058585;28;20208;-53
2022/02/19 12:57:14;;;;;;;2.25;1.23;;;9.00;99.90;;;;;;5058730;28;20196;-52
2022/02/19 12:59:44;;;;;;;3.72;1.40;;;9.00;99.90;;;;;;5058370;28;20496;-55
2022/02/19 13:02:16;;;;;;;4.10;1.30;;;9.10;99.90;;;;;;5058684;28;20556;-52
2022/02/19 13:04:45;;;;;;;4.38;1.17;;;9.10;99.90;;;;;;5058715;28;20228;-55
2022/02/19 13:07:18;;;;;;;2.58;1.05;;;9.00;99.90;;;;;;5060165;28;20199;-56
2022/02/19 13:09:58;;;;;;;5.03;1.40;;;9.10;99.90;;;;;;5061307;28;20242;-50
2022/02/19 13:12:33;;;;;;;1.85;1.40;;;9.10;99.90;;;;;;5059868;28;20437;-52
2022/02/19 13:15:05;;;;;;;1.55;1.45;;;9.10;99.90;;;;;;5060660;28;20295;-53
2022/02/19 13:17:33;;;;;;;4.95;2.13;;;9.10;99.90;;;;;;5062041;28;20203;-57